Time;durP1;ratioP1;P1;durP2;ratioP2;P2;SDS_P1;SDS_P2;PMS_P1;PMS_P2;Temp;Humidity;BMP_temperature;BMP_pressure;BME280_temperature;BME280_humidity;BME280_pressure;Samples;Min_cycle;Max_cycle;Signal;HPM_P1;HPM_P2
2023/04/16 00:01:01;;;;;;;8.57;2.78;;;;;;;10.79;99.98;94234.94;10410135;28;20108;-70
2023/04/16 00:06:02;;;;;;;9.13;2.95;;;;;;;10.78;96.94;94234.09;10426470;28;20031;-70
2023/04/16 00:11:02;;;;;;;8.63;2.80;;;;;;;10.72;95.08;94235.25;10425757;28;20028;-70
2023/04/16 00:16:03;;;;;;;11.00;2.90;;;;;;;10.68;98.04;94228.06;10393717;28;20467;-70
2023/04/16 00:21:04;;;;;;;5.07;2.45;;;;;;;10.70;96.52;94231.25;10403353;28;20040;-70
2023/04/16 00:26:04;;;;;;;4.93;2.67;;;;;;;10.68;94.86;94231.53;10425563;28;20029;-70
2023/04/16 00:31:05;;;;;;;8.60;2.78;;;;;;;10.66;97.63;94227.53;10425155;28;20040;-70
2023/04/16 00:36:06;;;;;;;4.03;2.00;;;;;;;10.33;93.01;94228.13;10415662;28;20100;-70
2023/04/16 00:41:06;;;;;;;4.60;2.05;;;;;;;10.25;93.62;94234.88;10425974;28;20271;-69
2023/04/16 00:46:07;;;;;;;3.53;1.73;;;;;;;10.15;93.34;94229.63;10428308;28;20036;-71
2023/04/16 00:51:08;;;;;;;4.75;1.85;;;;;;;10.09;93.97;94226.19;10424927;28;20052;-71
2023/04/16 00:56:09;;;;;;;4.78;1.77;;;;;;;9.81;94.08;94230.47;10415960;28;20155;-71
2023/04/16 01:01:09;;;;;;;4.78;1.63;;;;;;;9.78;94.66;94224.84;10427652;28;20039;-70
2023/04/16 01:06:10;;;;;;;8.57;2.60;;;;;;;9.63;95.75;94220.38;10423733;28;20118;-71
2023/04/16 01:11:11;;;;;;;7.55;2.20;;;;;;;9.62;95.59;94222.28;10430033;28;20039;-71
2023/04/16 01:16:12;;;;;;;4.43;1.83;;;;;;;9.57;96.72;94227.66;10423751;28;20048;-70
2023/04/16 01:21:12;;;;;;;5.63;1.80;;;;;;;9.46;97.96;94226.13;10429710;28;20040;-71
2023/04/16 01:26:12;;;;;;;3.80;2.00;;;;;;;9.39;98.32;94227.25;10429537;28;20460;-70
2023/04/16 01:31:13;;;;;;;3.95;1.33;;;;;;;9.48;100.00;94224.00;10429677;28;20174;-69
2023/04/16 01:36:13;;;;;;;2.75;1.50;;;;;;;9.51;99.93;94210.00;10427656;28;20032;-69
2023/04/16 01:41:14;;;;;;;4.07;1.90;;;;;;;9.47;99.61;94214.34;10428827;28;20048;-69
2023/04/16 01:46:22;;;;;;;4.82;1.70;;;;;;;9.46;100.00;94208.19;10429021;28;20349;-70
2023/04/16 01:51:23;;;;;;;4.05;1.45;;;;;;;9.33;100.00;94209.59;10429320;28;20658;-69
2023/04/16 01:56:23;;;;;;;3.65;1.30;;;;;;;9.28;100.00;94204.28;10427208;28;20036;-70
2023/04/16 02:01:24;;;;;;;4.20;1.60;;;;;;;9.07;100.00;94212.41;10428425;28;20526;-69
2023/04/16 02:06:26;;;;;;;2.63;1.80;;;;;;;8.85;100.00;94214.69;10428474;28;20032;-70
2023/04/16 02:11:26;;;;;;;5.43;1.58;;;;;;;8.65;100.00;94211.00;10427910;28;20324;-69
2023/04/16 02:16:27;;;;;;;6.57;2.10;;;;;;;8.69;100.00;94208.56;10427734;28;20037;-69
2023/04/16 02:21:27;;;;;;;5.00;1.83;;;;;;;8.60;100.00;94207.56;10427711;28;20067;-71
2023/04/16 02:26:28;;;;;;;7.80;3.33;;;;;;;8.44;100.00;94207.56;10427612;28;20781;-69
2023/04/16 02:31:29;;;;;;;77.47;73.07;;;;;;;8.38;100.00;94204.09;10427334;28;20032;-69
2023/04/16 02:36:30;;;;;;;4.85;2.72;;;;;;;8.39;100.00;94210.25;10427468;28;20029;-69
2023/04/16 02:41:31;;;;;;;6.00;2.25;;;;;;;8.30;100.00;94204.66;10427499;28;20048;-69
2023/04/16 02:46:32;;;;;;;7.05;2.25;;;;;;;8.28;100.00;94201.44;10426760;28;20119;-71
2023/04/16 02:51:32;;;;;;;2.92;2.28;;;;;;;8.10;100.00;94196.66;10425841;28;20463;-70
2023/04/16 02:56:32;;;;;;;5.80;2.40;;;;;;;8.09;100.00;94198.53;10426011;28;20028;-70
2023/04/16 03:01:33;;;;;;;4.35;1.90;;;;;;;7.98;100.00;94195.09;10426243;28;20879;-69
2023/04/16 03:06:33;;;;;;;6.68;2.30;;;;;;;7.85;100.00;94192.94;10426231;28;20029;-70
2023/04/16 03:11:34;;;;;;;3.53;1.95;;;;;;;7.81;100.00;94195.34;10425468;28;20098;-69
2023/04/16 03:16:35;;;;;;;6.03;2.22;;;;;;;7.84;100.00;94192.16;10407530;28;20049;-69
2023/04/16 03:21:35;;;;;;;8.52;2.40;;;;;;;7.85;100.00;94203.66;10425387;28;20025;-70
2023/04/16 03:26:36;;;;;;;9.13;2.10;;;;;;;7.98;100.00;94197.75;10426407;28;20037;-70
2023/04/16 03:31:36;;;;;;;8.10;2.30;;;;;;;8.14;100.00;94195.06;10397862;28;20128;-69
2023/04/16 03:36:37;;;;;;;4.40;1.98;;;;;;;8.08;100.00;94199.63;10425072;28;20032;-69
2023/04/16 03:41:37;;;;;;;3.23;2.03;;;;;;;8.02;100.00;94201.50;10425585;28;20602;-70
2023/04/16 03:46:38;;;;;;;7.25;2.33;;;;;;;8.05;100.00;94194.78;10424715;28;20294;-69
2023/04/16 03:51:38;;;;;;;8.32;1.70;;;;;;;8.07;100.00;94200.69;10424584;28;20021;-69
2023/04/16 03:56:40;;;;;;;3.53;2.03;;;;;;;8.18;100.00;94206.84;10424961;28;20112;-70
2023/04/16 04:01:40;;;;;;;3.03;2.10;;;;;;;8.21;100.00;94206.28;10436007;28;20025;-69
2023/04/16 04:06:41;;;;;;;7.80;2.50;;;;;;;8.15;100.00;94218.06;10433014;28;20021;-69
2023/04/16 04:11:42;;;;;;;6.97;2.42;;;;;;;8.10;100.00;94220.75;10432788;28;20016;-69
2023/04/16 04:16:42;;;;;;;3.13;2.00;;;;;;;8.12;100.00;94235.47;10432070;28;20055;-69
2023/04/16 04:21:43;;;;;;;6.38;2.42;;;;;;;8.19;100.00;94229.81;10425463;28;20522;-70
2023/04/16 04:26:43;;;;;;;5.10;1.92;;;;;;;8.20;100.00;94234.13;10425471;28;20033;-69
2023/04/16 04:31:44;;;;;;;4.53;2.60;;;;;;;8.32;100.00;94239.19;10431691;28;20116;-70
2023/04/16 04:36:46;;;;;;;4.03;1.73;;;;;;;8.36;100.00;94241.06;10432064;28;20332;-70
2023/04/16 04:41:47;;;;;;;4.38;2.13;;;;;;;8.39;100.00;94245.84;10442241;28;20096;-70
2023/04/16 04:46:47;;;;;;;5.57;2.90;;;;;;;8.39;100.00;94239.72;10430960;28;20028;-70
2023/04/16 04:51:48;;;;;;;12.37;3.23;;;;;;;8.44;100.00;94247.75;10431149;28;20086;-71
2023/04/16 04:56:49;;;;;;;3.33;2.22;;;;;;;8.53;100.00;94256.03;10430584;28;20275;-70
2023/04/16 05:01:50;;;;;;;5.30;3.20;;;;;;;8.75;100.00;94250.34;10430117;28;20049;-70
2023/04/16 05:06:50;;;;;;;5.93;2.80;;;;;;;8.94;100.00;94242.50;10429800;28;20379;-69
2023/04/16 05:11:52;;;;;;;5.80;3.35;;;;;;;9.10;100.00;94242.41;10417631;28;20414;-70
2023/04/16 05:16:52;;;;;;;5.68;3.05;;;;;;;9.25;100.00;94239.66;10427364;28;20381;-70
2023/04/16 05:21:53;;;;;;;8.88;3.10;;;;;;;9.37;100.00;94237.44;10430137;28;20024;-70
2023/04/16 05:26:54;;;;;;;10.20;3.30;;;;;;;9.55;100.00;94238.69;10428618;28;20517;-70
2023/04/16 05:31:54;;;;;;;4.57;3.08;;;;;;;9.73;100.00;94239.91;10426620;28;20021;-70
2023/04/16 05:36:54;;;;;;;6.80;2.97;;;;;;;9.81;100.00;94243.06;10427974;28;20423;-70
2023/04/16 05:41:55;;;;;;;8.25;3.78;;;;;;;9.99;100.00;94234.34;10426596;28;20078;-70
2023/04/16 05:46:55;;;;;;;7.10;2.95;;;;;;;10.08;100.00;94232.63;10421787;28;20025;-70
2023/04/16 05:51:56;;;;;;;6.75;3.33;;;;;;;10.43;100.00;94238.00;10416721;28;20016;-70
2023/04/16 05:56:56;;;;;;;7.60;2.95;;;;;;;10.65;100.00;94239.38;10428229;28;20029;-69
2023/04/16 06:01:57;;;;;;;3.58;2.33;;;;;;;10.87;100.00;94231.59;10427569;28;20079;-69
2023/04/16 06:06:57;;;;;;;5.20;2.75;;;;;;;11.22;100.00;94228.72;10427674;28;20029;-69
2023/04/16 06:11:58;;;;;;;7.40;3.15;;;;;;;11.58;100.00;94233.63;10417852;28;20457;-70
2023/04/16 06:16:59;;;;;;;5.63;2.78;;;;;;;12.10;100.00;94226.38;10407645;28;20139;-70
2023/04/16 06:21:59;;;;;;;9.23;3.70;;;;;;;12.55;97.43;94231.25;10388200;28;20498;-69
2023/04/16 06:26:59;;;;;;;7.80;7.03;;;;;;;12.38;93.55;94229.16;10426209;28;20297;-69
2023/04/16 06:32:00;;;;;;;8.85;2.90;;;;;;;12.91;95.35;94225.19;10410592;28;20484;-74
2023/04/16 06:37:01;;;;;;;5.22;2.97;;;;;;;13.50;87.71;94214.53;10405359;28;20138;-69
2023/04/16 06:42:01;;;;;;;8.48;4.80;;;;;;;13.51;87.36;94215.34;10409209;28;20058;-68
2023/04/16 06:47:03;;;;;;;10.90;4.35;;;;;;;14.00;83.60;94226.38;10425516;28;20397;-69
2023/04/16 06:52:04;;;;;;;11.70;5.03;;;;;;;14.69;77.29;94225.19;10425210;28;20028;-69
2023/04/16 06:57:04;;;;;;;14.05;5.75;;;;;;;15.11;72.08;94220.28;10423778;28;20029;-70
2023/04/16 07:02:06;;;;;;;18.38;6.72;;;;;;;15.52;69.67;94221.78;10407747;28;20064;-70
2023/04/16 07:07:07;;;;;;;11.93;5.60;;;;;;;15.76;64.89;94209.69;10419776;28;20033;-70
2023/04/16 07:12:08;;;;;;;12.27;5.30;;;;;;;15.62;64.85;94211.75;10407212;28;20043;-71
2023/04/16 07:17:08;;;;;;;9.90;5.13;;;;;;;15.84;62.09;94222.47;10422487;28;20049;-70
2023/04/16 07:22:09;;;;;;;9.93;5.82;;;;;;;15.98;62.63;94230.44;10419088;28;20031;-70
2023/04/16 07:27:10;;;;;;;12.15;5.13;;;;;;;16.18;61.94;94223.56;10420311;28;20458;-70
2023/04/16 07:32:12;;;;;;;10.93;5.15;;;;;;;16.32;63.75;94222.59;10422591;28;20032;-71
2023/04/16 07:37:12;;;;;;;8.40;3.78;;;;;;;16.35;58.73;94216.50;10423324;28;20438;-70
2023/04/16 07:42:13;;;;;;;7.47;3.92;;;;;;;16.90;55.92;94217.66;10419987;28;20025;-70
2023/04/16 07:47:13;;;;;;;7.55;3.28;;;;;;;16.92;54.01;94212.69;10395717;28;20028;-69
2023/04/16 07:52:14;;;;;;;8.57;3.40;;;;;;;16.68;56.47;94216.75;10420713;28;20033;-69
2023/04/16 07:57:15;;;;;;;7.03;3.30;;;;;;;16.80;57.26;94215.25;10402454;28;20410;-68
2023/04/16 08:02:16;;;;;;;10.75;3.00;;;;;;;17.57;57.91;94207.84;10424057;28;20040;-69
2023/04/16 08:07:16;;;;;;;9.52;2.47;;;;;;;18.75;51.28;94204.25;10424270;28;20021;-70
2023/04/16 08:12:17;;;;;;;8.35;2.10;;;;;;;20.51;47.77;94197.81;10423830;28;20086;-69
2023/04/16 08:17:18;;;;;;;6.93;2.28;;;;;;;21.30;45.98;94188.88;10424380;28;20041;-69
2023/04/16 08:22:18;;;;;;;4.75;1.88;;;;;;;21.54;44.66;94184.38;10392746;28;20041;-70
2023/04/16 08:27:19;;;;;;;7.88;2.42;;;;;;;21.28;43.86;94179.44;10405952;28;20085;-70
2023/04/16 08:32:19;;;;;;;7.73;2.00;;;;;;;20.98;46.03;94185.41;10397689;28;20040;-70
2023/04/16 08:37:20;;;;;;;8.68;2.25;;;;;;;22.08;43.55;94177.31;10423934;28;20029;-71
2023/04/16 08:42:31;;;;;;;8.25;2.10;;;;;;;22.99;40.29;94164.09;10423576;28;20025;-71
2023/04/16 08:47:35;;;;;;;6.22;1.98;;;;;;;22.81;40.01;94160.28;10427721;28;20037;-70
2023/04/16 08:52:41;;;;;;;7.90;2.05;;;;;;;22.49;43.46;94144.06;10433487;28;20039;-70
2023/04/16 08:57:53;;;;;;;9.52;2.15;;;;;;;22.07;44.27;94158.50;10430999;28;20029;-69
2023/04/16 09:02:55;;;;;;;7.63;2.30;;;;;;;21.90;42.57;94148.78;10428560;28;20555;-70
2023/04/16 09:07:56;;;;;;;12.07;3.17;;;;;;;21.98;41.04;94143.09;10429708;28;20071;-70
2023/04/16 09:12:57;;;;;;;5.80;1.83;;;;;;;22.01;43.97;94147.84;10428450;28;20025;-70
2023/04/16 09:17:58;;;;;;;5.50;1.63;;;;;;;23.02;40.09;94135.97;10429602;28;20287;-70
2023/04/16 09:22:58;;;;;;;10.35;2.08;;;;;;;21.77;43.44;94137.19;10411996;28;20469;-71
2023/04/16 09:27:59;;;;;;;4.73;2.03;;;;;;;21.71;43.31;94138.63;10417395;28;20041;-69
2023/04/16 09:33:21;;;;;;;2.15;1.40;;;;;;;21.78;43.70;94146.97;10427872;28;20432;-70
2023/04/16 09:38:21;;;;;;;3.10;1.73;;;;;;;21.60;43.79;94143.88;10425380;28;20431;-72
2023/04/16 09:43:21;;;;;;;5.90;1.80;;;;;;;22.56;40.94;94129.72;10408437;28;20094;-71
2023/04/16 09:48:30;;;;;;;6.67;1.70;;;;;;;23.10;39.63;94128.66;10425650;28;20056;-71
2023/04/16 09:53:31;;;;;;;8.30;2.20;;;;;;;23.41;41.02;94117.75;10426949;28;20112;-70
2023/04/16 09:58:35;;;;;;;5.15;1.88;;;;;;;23.82;39.43;94115.16;10414170;28;20102;-71
2023/04/16 10:03:38;;;;;;;4.10;1.90;;;;;;;24.32;38.10;94114.97;10418460;28;20071;-70
2023/04/16 10:08:48;;;;;;;5.53;1.92;;;;;;;25.29;35.59;94099.31;10387115;28;20183;-69
2023/04/16 10:13:51;;;;;;;5.85;1.67;;;;;;;23.91;38.14;94110.22;10421579;28;20064;-69
2023/04/16 10:18:53;;;;;;;6.95;1.90;;;;;;;23.14;41.25;94096.63;10402643;28;20092;-69
2023/04/16 10:23:54;;;;;;;9.23;2.20;;;;;;;20.50;43.47;94100.72;10415451;28;20025;-69
2023/04/16 10:28:55;;;;;;;6.57;1.75;;;;;;;21.30;41.92;94095.94;10411169;28;20082;-69
2023/04/16 10:33:57;;;;;;;4.18;1.40;;;;;;;21.25;41.76;94081.78;10417170;28;20776;-69
2023/04/16 10:38:59;;;;;;;6.90;3.17;;;;;;;23.35;40.87;94076.94;10411774;28;20025;-70
2023/04/16 10:44:11;;;;;;;4.10;1.58;;;;;;;26.07;36.27;94081.66;10410873;28;20128;-70
2023/04/16 10:49:25;;;;;;;6.93;2.20;;;;;;;25.11;34.66;94076.44;10412293;28;20039;-69
2023/04/16 10:54:27;;;;;;;7.70;1.52;;;;;;;25.98;35.26;94072.94;10403107;28;20509;-69
2023/04/16 10:59:36;;;;;;;4.38;1.73;;;;;;;28.38;32.84;94064.03;10400764;28;20025;-69
2023/04/16 11:04:39;;;;;;;5.28;1.67;;;;;;;28.77;31.02;94065.75;10396631;28;20057;-69
2023/04/16 11:09:52;;;;;;;6.00;1.27;;;;;;;26.99;31.59;94055.78;10422024;28;20061;-69
2023/04/16 11:14:57;;;;;;;6.00;1.90;;;;;;;22.47;38.68;94056.81;10425539;28;20730;-69
2023/04/16 11:19:58;;;;;;;8.07;1.58;;;;;;;22.16;39.98;94052.34;10407677;28;20051;-69
2023/04/16 11:24:59;;;;;;;3.67;1.52;;;;;;;22.02;39.69;94058.38;10425439;28;20342;-69
2023/04/16 11:30:03;;;;;;;8.55;2.75;;;;;;;21.38;39.44;94050.44;10407290;28;20025;-69
2023/04/16 11:35:15;;;;;;;4.03;1.63;;;;;;;19.66;45.11;94047.88;10424761;28;20029;-69
2023/04/16 11:40:15;;;;;;;6.88;1.98;;;;;;;18.82;49.06;94041.13;10384326;28;20801;-69
2023/04/16 11:45:18;;;;;;;10.45;2.10;;;;;;;19.26;48.60;94038.56;10399938;28;20033;-69
2023/04/16 11:50:23;;;;;;;4.15;1.63;;;;;;;19.77;48.84;94024.41;10424339;28;20025;-69
2023/04/16 11:55:24;;;;;;;4.90;1.70;;;;;;;19.85;47.47;94024.63;10423570;28;20009;-69
2023/04/16 12:00:33;;;;;;;5.55;1.50;;;;;;;18.88;50.13;94011.75;10406677;28;20492;-69
2023/04/16 12:05:38;;;;;;;7.32;1.65;;;;;;;19.16;48.09;94003.66;10398825;28;20032;-69
2023/04/16 12:10:54;;;;;;;7.78;1.75;;;;;;;19.68;50.78;94001.94;10424316;28;20456;-69
2023/04/16 12:15:56;;;;;;;4.18;1.30;;;;;;;19.62;47.66;93987.78;10383703;28;20099;-69
2023/04/16 12:20:56;;;;;;;5.10;1.85;;;;;;;19.60;46.73;93983.81;10421998;28;20056;-69
2023/04/16 12:26:01;;;;;;;4.88;1.50;;;;;;;19.88;46.06;93985.72;10432025;28;20136;-69
2023/04/16 12:31:02;;;;;;;10.63;1.98;;;;;;;19.72;47.27;93983.75;10431924;28;20111;-69
2023/04/16 12:36:23;;;;;;;5.25;1.40;;;;;;;19.70;48.08;93974.34;10431766;28;20025;-68
2023/04/16 12:41:23;;;;;;;5.78;2.17;;;;;;;19.28;49.69;93970.13;10435774;28;20032;-69
2023/04/16 12:46:24;;;;;;;4.10;1.70;;;;;;;18.36;50.84;93975.19;10403756;28;20036;-68
2023/04/16 12:51:25;;;;;;;3.43;1.80;;;;;;;17.66;67.29;93976.81;10429318;28;20052;-68
2023/04/16 12:56:26;;;;;;;6.68;1.85;;;;;;;16.67;74.52;93970.94;10433373;28;20260;-68
2023/04/16 13:01:27;;;;;;;4.97;1.80;;;;;;;16.39;74.58;93960.59;10430228;28;20040;-69
2023/04/16 13:06:27;;;;;;;5.13;2.10;;;;;;;16.69;79.87;93951.66;10430591;28;20506;-68
2023/04/16 13:11:27;;;;;;;6.43;2.28;;;;;;;17.27;77.31;93948.31;10423308;28;20033;-68
2023/04/16 13:16:28;;;;;;;4.43;1.98;;;;;;;17.51;71.14;93945.66;10430447;28;20488;-69
2023/04/16 13:21:31;;;;;;;12.67;2.40;;;;;;;16.94;75.31;93947.19;10433931;28;20027;-68
2023/04/16 13:26:31;;;;;;;7.22;1.83;;;;;;;16.73;71.74;93947.94;10436406;28;20291;-68
2023/04/16 13:31:31;;;;;;;2.53;1.87;;;;;;;16.47;69.29;93956.25;10428640;28;20021;-68
2023/04/16 13:36:32;;;;;;;3.40;1.42;;;;;;;16.49;67.31;93958.66;10410631;28;20017;-69
2023/04/16 13:41:33;;;;;;;3.22;1.50;;;;;;;16.32;69.00;93948.72;10427985;28;20024;-68
2023/04/16 13:46:34;;;;;;;4.90;1.58;;;;;;;16.30;69.35;93950.94;10410376;28;20476;-68
2023/04/16 13:51:34;;;;;;;4.97;1.63;;;;;;;16.16;73.15;93946.56;10426912;28;20102;-68
2023/04/16 13:56:35;;;;;;;2.95;1.63;;;;;;;16.14;78.76;93945.31;10423320;28;20792;-67
2023/04/16 14:01:35;;;;;;;4.97;1.45;;;;;;;16.11;78.65;93960.31;10421969;28;20405;-70
2023/04/16 14:06:36;;;;;;;5.00;1.83;;;;;;;15.86;82.81;93972.84;10428005;28;20029;-67
2023/04/16 14:11:36;;;;;;;3.40;1.70;;;;;;;15.89;82.76;93983.03;10427604;28;20102;-68
2023/04/16 14:16:37;;;;;;;6.68;1.23;;;;;;;16.15;73.05;93993.78;10424627;28;20789;-68
2023/04/16 14:21:37;;;;;;;6.72;1.90;;;;;;;16.23;72.81;93994.88;10414904;28;20029;-68
2023/04/16 14:26:38;;;;;;;3.40;1.90;;;;;;;16.37;76.45;93983.78;10392535;28;20048;-68
2023/04/16 14:31:38;;;;;;;7.00;2.53;;;;;;;16.44;79.97;93981.34;10392315;28;20275;-69
2023/04/16 14:36:39;;;;;;;5.23;2.00;;;;;;;16.36;84.71;93990.31;10391187;28;20454;-73
2023/04/16 14:41:40;;;;;;;6.20;1.85;;;;;;;16.34;90.55;94001.50;10406739;28;20272;-76
2023/04/16 14:46:40;;;;;;;6.68;2.05;;;;;;;16.27;94.17;94011.25;10402812;28;20029;-74
2023/04/16 14:51:41;;;;;;;4.40;2.30;;;;;;;16.23;98.67;94017.34;10403768;28;20033;-80
2023/04/16 14:56:42;;;;;;;4.97;2.00;;;;;;;16.06;99.18;94029.06;10413733;28;20039;-74
2023/04/16 15:01:42;;;;;;;4.93;1.75;;;;;;;15.77;100.00;94020.81;10410720;28;20035;-72
2023/04/16 15:06:43;;;;;;;5.95;2.38;;;;;;;15.48;100.00;94036.66;10413989;28;20025;-72
2023/04/16 15:11:46;;;;;;;4.45;2.45;;;;;;;15.27;100.00;94046.59;10418736;28;20487;-80
2023/04/16 15:16:47;;;;;;;9.95;3.13;;;;;;;15.18;100.00;94052.78;10422448;28;20044;-73
2023/04/16 15:21:47;;;;;;;5.05;2.95;;;;;;;15.12;100.00;94056.75;10428549;28;20025;-81
2023/04/16 15:26:48;;;;;;;6.93;2.72;;;;;;;14.78;100.00;94061.03;10432836;28;20037;-84
2023/04/16 15:31:49;;;;;;;3.63;2.38;;;;;;;14.88;100.00;94075.38;10442889;28;20012;-72
2023/04/16 15:36:49;;;;;;;3.72;2.10;;;;;;;14.89;100.00;94061.53;10409940;28;20032;-81
2023/04/16 15:41:50;;;;;;;4.82;2.78;;;;;;;14.86;100.00;94076.50;10426358;28;20050;-72
2023/04/16 15:46:51;;;;;;;6.32;2.40;;;;;;;14.86;100.00;94076.50;10423274;28;20079;-68
2023/04/16 15:51:52;;;;;;;4.25;2.35;;;;;;;14.60;100.00;94076.41;10415597;28;20178;-71
2023/04/16 15:56:53;;;;;;;6.90;2.78;;;;;;;14.52;100.00;94085.28;10426378;28;20027;-70
2023/04/16 16:01:53;;;;;;;3.70;2.00;;;;;;;14.38;100.00;94084.63;10436908;28;20028;-70
2023/04/16 16:06:54;;;;;;;6.95;2.63;;;;;;;14.08;100.00;94084.31;10427572;28;20287;-69
2023/04/16 16:11:56;;;;;;;5.93;2.80;;;;;;;13.06;100.00;94083.81;10420274;28;20029;-69
2023/04/16 16:16:57;;;;;;;3.92;2.17;;;;;;;12.96;100.00;94079.44;10423213;28;20048;-69
2023/04/16 16:21:57;;;;;;;7.07;2.60;;;;;;;12.62;100.00;94077.22;10426251;28;20494;-71
2023/04/16 16:26:58;;;;;;;8.40;2.67;;;;;;;12.55;100.00;94079.53;10423101;28;20032;-69
2023/04/16 16:31:58;;;;;;;2.63;2.20;;;;;;;12.74;100.00;94074.81;10428191;28;20809;-72
2023/04/16 16:36:59;;;;;;;9.48;3.22;;;;;;;12.91;100.00;94074.16;10429154;28;20283;-75
2023/04/16 16:42:00;;;;;;;14.30;3.53;;;;;;;12.99;100.00;94084.22;10431564;28;20040;-71
2023/04/16 16:47:00;;;;;;;3.60;2.40;;;;;;;13.12;100.00;94092.59;10413403;28;20097;-70
2023/04/16 16:52:00;;;;;;;3.77;2.20;;;;;;;12.98;100.00;94095.31;10426892;28;20025;-69
2023/04/16 16:57:01;;;;;;;6.38;2.40;;;;;;;12.97;100.00;94101.81;10418792;28;20283;-71
2023/04/16 17:02:02;;;;;;;9.32;2.60;;;;;;;12.93;100.00;94108.91;10422263;28;20025;-71
2023/04/16 17:07:05;;;;;;;5.88;3.88;;;;;;;12.78;100.00;94101.94;10417704;28;20507;-70
2023/04/16 17:12:06;;;;;;;8.40;3.00;;;;;;;12.30;100.00;94111.28;10425421;28;20404;-75
2023/04/16 17:17:06;;;;;;;4.25;2.47;;;;;;;11.94;100.00;94109.25;10423228;28;20122;-75
2023/04/16 17:22:07;;;;;;;12.00;2.88;;;;;;;11.90;100.00;94113.59;10396906;28;20028;-75
2023/04/16 17:27:07;;;;;;;5.68;3.15;;;;;;;11.57;100.00;94122.50;10426066;28;20037;-73
2023/04/16 17:32:08;;;;;;;5.55;3.10;;;;;;;11.39;100.00;94121.44;10420170;28;20029;-72
2023/04/16 17:37:08;;;;;;;5.05;3.00;;;;;;;11.39;100.00;94116.03;10419695;28;20060;-73
2023/04/16 17:42:09;;;;;;;14.23;3.78;;;;;;;11.27;100.00;94118.38;10422798;28;20730;-72
2023/04/16 17:47:10;;;;;;;14.48;6.15;;;;;;;11.33;100.00;94114.53;10422149;28;20033;-72
2023/04/16 17:52:10;;;;;;;10.23;5.28;;;;;;;11.55;100.00;94126.56;10422994;28;20032;-71
2023/04/16 17:57:11;;;;;;;10.40;5.22;;;;;;;11.61;100.00;94128.09;10426800;28;20683;-72
2023/04/16 18:02:11;;;;;;;8.45;4.78;;;;;;;11.76;100.00;94125.16;10426670;28;20027;-71
2023/04/16 18:07:12;;;;;;;6.25;4.32;;;;;;;11.86;100.00;94128.75;10426587;28;20040;-71
2023/04/16 18:12:12;;;;;;;10.90;4.50;;;;;;;11.91;100.00;94126.75;10423501;28;20145;-72
2023/04/16 18:17:13;;;;;;;8.35;3.45;;;;;;;12.03;100.00;94125.50;10418437;28;20060;-73
2023/04/16 18:22:13;;;;;;;9.40;3.13;;;;;;;12.08;100.00;94131.63;10424732;28;20816;-75
2023/04/16 18:27:14;;;;;;;6.25;3.70;;;;;;;12.13;100.00;94139.59;10426703;28;20029;-75
2023/04/16 18:32:14;;;;;;;9.32;4.78;;;;;;;11.60;100.00;94137.25;10422335;28;20503;-76
2023/04/16 18:37:17;;;;;;;9.00;4.78;;;;;;;11.37;100.00;94145.16;10430632;28;20028;-77
2023/04/16 18:42:18;;;;;;;7.32;4.57;;;;;;;11.22;100.00;94138.09;10426275;28;20093;-75
2023/04/16 18:47:19;;;;;;;8.20;4.57;;;;;;;11.02;100.00;94135.69;10425537;28;20039;-75
2023/04/16 18:52:19;;;;;;;11.50;5.40;;;;;;;10.94;100.00;94148.72;10415787;28;20090;-75
2023/04/16 18:57:20;;;;;;;14.30;4.90;;;;;;;10.87;100.00;94152.81;10394690;28;20446;-76
2023/04/16 19:02:20;;;;;;;10.77;4.70;;;;;;;10.69;100.00;94147.16;10424114;28;20496;-76
2023/04/16 19:07:20;;;;;;;7.37;4.70;;;;;;;10.74;100.00;94149.78;10430376;28;20087;-74
2023/04/16 19:12:21;;;;;;;10.50;5.23;;;;;;;10.72;100.00;94153.84;10424256;28;20361;-74
2023/04/16 19:17:22;;;;;;;10.23;4.68;;;;;;;10.61;100.00;94163.91;10420749;28;20527;-75
2023/04/16 19:22:22;;;;;;;8.20;4.70;;;;;;;10.59;100.00;94156.13;10417050;28;20028;-75
2023/04/16 19:27:23;;;;;;;8.52;4.35;;;;;;;10.66;100.00;94152.28;10403023;28;20032;-74
2023/04/16 19:32:23;;;;;;;10.88;5.40;;;;;;;10.56;100.00;94151.34;10421418;28;20676;-74
2023/04/16 19:37:26;;;;;;;8.35;5.75;;;;;;;10.53;100.00;94148.41;10400943;28;20021;-74
2023/04/16 19:42:26;;;;;;;11.07;5.30;;;;;;;10.58;100.00;94143.00;10403673;28;20087;-75
2023/04/16 19:47:27;;;;;;;8.07;5.10;;;;;;;10.74;100.00;94144.41;10427786;28;20025;-75
2023/04/16 19:52:27;;;;;;;10.13;5.13;;;;;;;11.01;100.00;94147.53;10417957;28;20279;-74
2023/04/16 19:57:49;;;;;;;6.55;4.68;;;;;;;11.30;100.00;94150.06;10414862;28;20025;-74
2023/04/16 20:02:53;;;;;;;6.47;4.18;;;;;;;11.52;100.00;94135.22;10413488;28;20025;-75
2023/04/16 20:07:55;;;;;;;5.90;3.40;;;;;;;11.61;100.00;94136.97;10408938;28;20032;-73
2023/04/16 20:12:55;;;;;;;5.35;3.85;;;;;;;11.54;100.00;94133.84;10392273;28;20040;-73
2023/04/16 20:17:56;;;;;;;5.80;3.70;;;;;;;11.35;100.00;94136.56;10385520;28;20049;-74
2023/04/16 20:22:57;;;;;;;5.90;3.80;;;;;;;11.21;100.00;94136.50;10382208;28;20032;-72
2023/04/16 20:27:57;;;;;;;9.00;4.65;;;;;;;11.27;100.00;94142.59;10401090;28;20033;-71
2023/04/16 20:32:57;;;;;;;5.87;3.90;;;;;;;11.38;100.00;94143.25;10403124;28;20032;-72
2023/04/16 20:37:58;;;;;;;7.30;4.13;;;;;;;11.40;100.00;94136.50;10416119;28;20024;-72
2023/04/16 20:42:59;;;;;;;3.85;3.45;;;;;;;11.46;100.00;94143.38;10422293;28;20033;-72
2023/04/16 20:47:59;;;;;;;11.43;5.30;;;;;;;11.18;100.00;94136.28;10394551;28;20029;-72
2023/04/16 20:53:00;;;;;;;9.15;5.68;;;;;;;11.15;100.00;94147.59;10422513;28;20055;-72
2023/04/16 20:58:00;;;;;;;7.93;5.70;;;;;;;11.19;100.00;94143.25;10431266;28;20021;-72
2023/04/16 21:03:01;;;;;;;8.80;5.63;;;;;;;11.16;100.00;94138.47;10430978;28;20348;-72
2023/04/16 21:08:01;;;;;;;7.75;5.20;;;;;;;11.16;100.00;94144.63;10430271;28;20112;-72
2023/04/16 21:13:02;;;;;;;7.93;5.35;;;;;;;11.31;100.00;94129.38;10430554;28;20776;-72
2023/04/16 21:18:02;;;;;;;13.05;5.10;;;;;;;11.49;100.00;94133.91;10430167;28;20068;-72
2023/04/16 21:23:04;;;;;;;7.95;4.93;;;;;;;11.60;100.00;94134.56;10430452;28;20037;-72
2023/04/16 21:28:05;;;;;;;8.50;4.90;;;;;;;11.71;100.00;94136.00;10429731;28;20037;-72
2023/04/16 21:33:05;;;;;;;9.63;4.90;;;;;;;11.76;100.00;94135.91;10429900;28;20021;-72
2023/04/16 21:38:06;;;;;;;7.05;4.38;;;;;;;11.74;100.00;94134.59;10406505;28;20527;-71
2023/04/16 21:43:06;;;;;;;11.67;5.27;;;;;;;11.48;100.00;94128.84;10414761;28;20032;-72
2023/04/16 21:48:07;;;;;;;15.53;6.83;;;;;;;11.26;100.00;94128.34;10429058;28;20283;-72
2023/04/16 21:53:07;;;;;;;9.43;6.18;;;;;;;11.14;100.00;94130.69;10427982;28;20274;-71
2023/04/16 21:58:10;;;;;;;11.47;6.53;;;;;;;11.08;100.00;94132.66;10428957;28;20027;-72
2023/04/16 22:03:11;;;;;;;10.48;6.55;;;;;;;11.11;100.00;94134.75;10428561;28;20310;-72
2023/04/16 22:08:11;;;;;;;10.38;7.38;;;;;;;11.24;100.00;94130.53;10408821;28;20157;-72
2023/04/16 22:13:12;;;;;;;15.93;7.97;;;;;;;11.17;100.00;94132.00;10426644;28;20371;-72
2023/04/16 22:18:13;;;;;;;11.90;7.70;;;;;;;11.08;100.00;94126.47;10425960;28;20507;-71
2023/04/16 22:23:13;;;;;;;13.80;7.57;;;;;;;11.04;100.00;94120.09;10409226;28;20033;-71
2023/04/16 22:28:13;;;;;;;15.60;7.18;;;;;;;11.00;100.00;94109.09;10406590;28;20310;-71
2023/04/16 22:33:14;;;;;;;11.53;7.70;;;;;;;10.97;100.00;94114.25;10415239;28;20025;-72
2023/04/16 22:38:15;;;;;;;10.13;7.70;;;;;;;10.93;100.00;94114.03;10426573;28;20889;-71
2023/04/16 22:43:16;;;;;;;11.32;7.38;;;;;;;10.79;100.00;94113.97;10426801;28;20024;-72
2023/04/16 22:48:17;;;;;;;13.95;8.00;;;;;;;10.74;100.00;94112.16;10426565;28;20035;-72
2023/04/16 22:53:18;;;;;;;10.95;6.88;;;;;;;10.87;100.00;94104.44;10418555;28;20028;-71
2023/04/16 22:58:18;;;;;;;14.98;7.78;;;;;;;10.98;100.00;94100.53;10401482;28;20028;-74
2023/04/16 23:03:18;;;;;;;11.63;7.43;;;;;;;10.97;100.00;94104.31;10398058;28;20024;-71
2023/04/16 23:08:19;;;;;;;11.80;5.85;;;;;;;11.11;100.00;94083.66;10407915;28;20037;-71
2023/04/16 23:13:20;;;;;;;10.20;6.63;;;;;;;11.24;100.00;94086.69;10408368;28;20024;-73